マカオ の空港の天気 - METARとTAF

マカオ国際空港 ( VMMC / MFM ) - マカオ タイパ島
飛行場実況気象(Metar)
観測時間05/26 09:00 CST (05/26 01:00 UTC)
風向・風速南東 3m/s
視程8000m
天気現象弱いしゅう雨
少しの雲 雲底高度 120m
全天の4割程度の雲 雲底高度 460m
気温26℃
湿度94%
気圧1005hPa
METARVMMC 260100Z 13005KT 100V160 8000 -SHRA FEW004 SCT015 26/25 Q1005 NOSIG
過去の天気等 Google飛行場航空写真 Wunderground天気予報

過去48時間のMETAR

飛行場予報(TAF)
発表時間: 5/26 07:00 CST (5/25 23:00 UTC)
予報対象時間: 26日8時 CST ~ 27日14時 CST
風向・風速南東 4m/s
視程10km以上
少しの雲 雲底高度 180m
全天の4割程度の雲 雲底高度 460m
26日8時 CST ~ 26日14時 CST に一時的に
視程4500m
天気現象しゅう雨
26日18時 CST ~ 26日20時 CST に徐々に
風向・風速南南西 5m/s
27日4時 CST ~ 27日14時 CST に一時的に
視程3500m
天気現象しゅう雨
少しの積乱雲 雲底高度 240m
全天の4割程度の雲 雲底高度 460m
TAF VMMC 252300Z 2600/2706 14008KT 9999 FEW006 SCT015
TEMPO 2600/2606 4500 SHRA
BECMG 2610/2612 20010KT
TEMPO 2620/2706 3500 SHRA FEW008CB SCT015